sensor_id;sensor_type;location;lat;lon;timestamp;P1;durP1;ratioP1;P2;durP2;ratioP2
572;SDS011;271;51.114;13.780;2023-08-17T00:02:44;22.47;;;10.10;;
572;SDS011;271;51.114;13.780;2023-08-17T00:05:32;22.00;;;9.67;;
572;SDS011;271;51.114;13.780;2023-08-17T00:08:20;21.83;;;9.10;;
572;SDS011;271;51.114;13.780;2023-08-17T00:11:09;21.40;;;9.40;;
572;SDS011;271;51.114;13.780;2023-08-17T00:13:56;22.70;;;11.20;;
572;SDS011;271;51.114;13.780;2023-08-17T00:16:44;21.70;;;9.70;;
572;SDS011;271;51.114;13.780;2023-08-17T00:19:32;21.00;;;9.43;;
572;SDS011;271;51.114;13.780;2023-08-17T00:22:20;24.40;;;10.80;;
572;SDS011;271;51.114;13.780;2023-08-17T00:25:08;25.23;;;9.63;;
572;SDS011;271;51.114;13.780;2023-08-17T00:27:57;22.03;;;9.70;;
572;SDS011;271;51.114;13.780;2023-08-17T00:30:44;22.37;;;9.00;;
572;SDS011;271;51.114;13.780;2023-08-17T00:33:32;23.13;;;10.40;;
572;SDS011;271;51.114;13.780;2023-08-17T00:36:20;24.23;;;9.70;;
572;SDS011;271;51.114;13.780;2023-08-17T00:39:07;25.50;;;10.20;;
572;SDS011;271;51.114;13.780;2023-08-17T00:41:55;22.93;;;10.67;;
572;SDS011;271;51.114;13.780;2023-08-17T00:44:44;21.10;;;9.27;;
572;SDS011;271;51.114;13.780;2023-08-17T00:47:32;22.00;;;10.10;;
572;SDS011;271;51.114;13.780;2023-08-17T00:50:20;22.87;;;9.93;;
572;SDS011;271;51.114;13.780;2023-08-17T00:53:07;22.57;;;10.50;;
572;SDS011;271;51.114;13.780;2023-08-17T00:55:59;24.03;;;11.73;;
572;SDS011;271;51.114;13.780;2023-08-17T00:58:49;24.00;;;11.00;;
572;SDS011;271;51.114;13.780;2023-08-17T01:01:39;23.20;;;11.57;;
572;SDS011;271;51.114;13.780;2023-08-17T01:04:26;23.13;;;10.40;;
572;SDS011;271;51.114;13.780;2023-08-17T01:07:14;22.40;;;10.63;;
572;SDS011;271;51.114;13.780;2023-08-17T01:10:02;23.50;;;11.17;;
572;SDS011;271;51.114;13.780;2023-08-17T01:12:56;23.27;;;10.67;;
572;SDS011;271;51.114;13.780;2023-08-17T01:15:52;22.00;;;10.87;;
572;SDS011;271;51.114;13.780;2023-08-17T01:18:46;22.40;;;10.43;;
572;SDS011;271;51.114;13.780;2023-08-17T01:21:37;22.00;;;10.60;;
572;SDS011;271;51.114;13.780;2023-08-17T01:24:31;21.40;;;9.20;;
572;SDS011;271;51.114;13.780;2023-08-17T01:27:18;22.27;;;10.20;;
572;SDS011;271;51.114;13.780;2023-08-17T01:30:07;24.20;;;11.10;;
572;SDS011;271;51.114;13.780;2023-08-17T01:32:57;23.53;;;10.07;;
572;SDS011;271;51.114;13.780;2023-08-17T01:35:53;22.87;;;10.97;;
572;SDS011;271;51.114;13.780;2023-08-17T01:38:45;23.30;;;10.60;;
572;SDS011;271;51.114;13.780;2023-08-17T01:41:36;24.50;;;11.07;;
572;SDS011;271;51.114;13.780;2023-08-17T01:44:25;24.97;;;10.57;;
572;SDS011;271;51.114;13.780;2023-08-17T01:47:13;23.60;;;11.00;;
572;SDS011;271;51.114;13.780;2023-08-17T01:50:01;23.40;;;10.80;;
572;SDS011;271;51.114;13.780;2023-08-17T01:52:49;23.40;;;9.70;;
572;SDS011;271;51.114;13.780;2023-08-17T01:55:36;24.50;;;9.90;;
572;SDS011;271;51.114;13.780;2023-08-17T01:58:26;22.87;;;10.37;;
572;SDS011;271;51.114;13.780;2023-08-17T02:01:13;21.80;;;9.90;;
572;SDS011;271;51.114;13.780;2023-08-17T02:04:01;23.23;;;11.00;;
572;SDS011;271;51.114;13.780;2023-08-17T02:06:49;22.27;;;10.00;;
572;SDS011;271;51.114;13.780;2023-08-17T02:09:37;23.23;;;10.13;;
572;SDS011;271;51.114;13.780;2023-08-17T02:12:24;22.30;;;10.57;;
572;SDS011;271;51.114;13.780;2023-08-17T02:15:13;21.40;;;9.40;;
572;SDS011;271;51.114;13.780;2023-08-17T02:18:01;24.13;;;10.20;;
572;SDS011;271;51.114;13.780;2023-08-17T02:20:49;22.57;;;10.13;;
572;SDS011;271;51.114;13.780;2023-08-17T02:23:37;22.63;;;9.03;;
572;SDS011;271;51.114;13.780;2023-08-17T02:26:25;22.73;;;9.93;;
572;SDS011;271;51.114;13.780;2023-08-17T02:29:12;22.20;;;9.20;;
572;SDS011;271;51.114;13.780;2023-08-17T02:32:02;21.67;;;9.20;;
572;SDS011;271;51.114;13.780;2023-08-17T02:34:49;21.27;;;8.73;;
572;SDS011;271;51.114;13.780;2023-08-17T02:37:37;22.53;;;9.77;;
572;SDS011;271;51.114;13.780;2023-08-17T02:40:25;21.37;;;9.27;;
572;SDS011;271;51.114;13.780;2023-08-17T02:43:12;22.97;;;10.30;;
572;SDS011;271;51.114;13.780;2023-08-17T02:46:00;22.37;;;9.30;;
572;SDS011;271;51.114;13.780;2023-08-17T02:48:49;20.50;;;8.80;;
572;SDS011;271;51.114;13.780;2023-08-17T02:51:37;20.60;;;8.70;;
572;SDS011;271;51.114;13.780;2023-08-17T02:54:24;21.30;;;8.67;;
572;SDS011;271;51.114;13.780;2023-08-17T02:57:12;21.83;;;7.90;;
572;SDS011;271;51.114;13.780;2023-08-17T03:00:00;20.47;;;7.97;;
572;SDS011;271;51.114;13.780;2023-08-17T03:02:48;20.57;;;7.30;;
572;SDS011;271;51.114;13.780;2023-08-17T03:05:37;20.47;;;7.93;;
572;SDS011;271;51.114;13.780;2023-08-17T03:08:24;22.20;;;8.43;;
572;SDS011;271;51.114;13.780;2023-08-17T03:11:12;20.33;;;7.70;;
572;SDS011;271;51.114;13.780;2023-08-17T03:14:00;19.43;;;7.10;;
572;SDS011;271;51.114;13.780;2023-08-17T03:16:47;21.57;;;7.47;;
572;SDS011;271;51.114;13.780;2023-08-17T03:19:35;19.30;;;7.33;;
572;SDS011;271;51.114;13.780;2023-08-17T03:22:24;20.20;;;7.67;;
572;SDS011;271;51.114;13.780;2023-08-17T03:25:12;20.93;;;7.90;;
572;SDS011;271;51.114;13.780;2023-08-17T03:28:00;20.17;;;7.90;;
572;SDS011;271;51.114;13.780;2023-08-17T03:30:47;19.77;;;7.33;;
572;SDS011;271;51.114;13.780;2023-08-17T03:33:35;19.87;;;7.30;;
572;SDS011;271;51.114;13.780;2023-08-17T03:36:23;20.60;;;8.13;;
572;SDS011;271;51.114;13.780;2023-08-17T03:39:12;20.17;;;7.10;;
572;SDS011;271;51.114;13.780;2023-08-17T03:42:00;21.87;;;7.70;;
572;SDS011;271;51.114;13.780;2023-08-17T03:44:48;19.80;;;7.60;;
572;SDS011;271;51.114;13.780;2023-08-17T03:47:36;19.63;;;7.17;;
572;SDS011;271;51.114;13.780;2023-08-17T03:50:25;20.37;;;7.63;;
572;SDS011;271;51.114;13.780;2023-08-17T03:53:14;19.87;;;7.00;;
572;SDS011;271;51.114;13.780;2023-08-17T03:56:03;20.97;;;8.27;;
572;SDS011;271;51.114;13.780;2023-08-17T03:58:52;20.50;;;7.70;;
572;SDS011;271;51.114;13.780;2023-08-17T04:01:40;21.30;;;7.83;;
572;SDS011;271;51.114;13.780;2023-08-17T04:04:28;20.20;;;7.83;;
572;SDS011;271;51.114;13.780;2023-08-17T04:07:20;18.87;;;6.50;;
572;SDS011;271;51.114;13.780;2023-08-17T04:10:08;22.23;;;6.80;;
572;SDS011;271;51.114;13.780;2023-08-17T04:12:57;20.70;;;7.77;;
572;SDS011;271;51.114;13.780;2023-08-17T04:15:45;19.70;;;7.40;;
572;SDS011;271;51.114;13.780;2023-08-17T04:18:32;19.57;;;7.37;;
572;SDS011;271;51.114;13.780;2023-08-17T04:21:20;19.00;;;7.03;;
572;SDS011;271;51.114;13.780;2023-08-17T04:24:08;20.50;;;8.23;;
572;SDS011;271;51.114;13.780;2023-08-17T04:26:55;21.50;;;7.83;;
572;SDS011;271;51.114;13.780;2023-08-17T04:29:45;19.23;;;6.53;;
572;SDS011;271;51.114;13.780;2023-08-17T04:32:33;19.60;;;7.77;;
572;SDS011;271;51.114;13.780;2023-08-17T04:35:20;19.40;;;7.40;;
572;SDS011;271;51.114;13.780;2023-08-17T04:38:08;19.53;;;6.80;;
572;SDS011;271;51.114;13.780;2023-08-17T04:40:56;19.07;;;7.13;;
572;SDS011;271;51.114;13.780;2023-08-17T04:43:44;19.07;;;7.00;;
572;SDS011;271;51.114;13.780;2023-08-17T04:46:34;19.20;;;7.20;;
572;SDS011;271;51.114;13.780;2023-08-17T04:49:21;19.27;;;6.97;;
572;SDS011;271;51.114;13.780;2023-08-17T04:52:09;18.80;;;6.63;;
572;SDS011;271;51.114;13.780;2023-08-17T04:54:57;18.73;;;6.20;;
572;SDS011;271;51.114;13.780;2023-08-17T04:57:45;19.20;;;7.37;;
572;SDS011;271;51.114;13.780;2023-08-17T05:00:32;19.23;;;6.70;;
572;SDS011;271;51.114;13.780;2023-08-17T05:03:21;21.10;;;6.73;;
572;SDS011;271;51.114;13.780;2023-08-17T05:06:09;18.23;;;5.90;;
572;SDS011;271;51.114;13.780;2023-08-17T05:08:57;21.10;;;7.00;;
572;SDS011;271;51.114;13.780;2023-08-17T05:11:45;20.30;;;6.80;;
572;SDS011;271;51.114;13.780;2023-08-17T05:14:33;20.33;;;7.00;;
572;SDS011;271;51.114;13.780;2023-08-17T05:17:20;20.03;;;7.23;;
572;SDS011;271;51.114;13.780;2023-08-17T05:20:10;18.60;;;7.20;;
572;SDS011;271;51.114;13.780;2023-08-17T05:22:59;19.93;;;7.67;;
572;SDS011;271;51.114;13.780;2023-08-17T05:25:47;20.40;;;7.50;;
572;SDS011;271;51.114;13.780;2023-08-17T05:28:35;20.00;;;6.93;;
572;SDS011;271;51.114;13.780;2023-08-17T05:31:22;19.93;;;7.17;;
572;SDS011;271;51.114;13.780;2023-08-17T05:34:10;18.47;;;6.40;;
572;SDS011;271;51.114;13.780;2023-08-17T05:37:00;18.77;;;6.70;;
572;SDS011;271;51.114;13.780;2023-08-17T05:39:48;19.33;;;7.00;;
572;SDS011;271;51.114;13.780;2023-08-17T05:42:36;19.50;;;6.93;;
572;SDS011;271;51.114;13.780;2023-08-17T05:45:24;20.43;;;8.27;;
572;SDS011;271;51.114;13.780;2023-08-17T05:48:12;19.87;;;7.10;;
572;SDS011;271;51.114;13.780;2023-08-17T05:51:00;21.07;;;7.50;;
572;SDS011;271;51.114;13.780;2023-08-17T05:53:49;20.33;;;7.47;;
572;SDS011;271;51.114;13.780;2023-08-17T05:56:36;18.50;;;6.60;;
572;SDS011;271;51.114;13.780;2023-08-17T05:59:24;18.67;;;6.50;;
572;SDS011;271;51.114;13.780;2023-08-17T06:02:12;19.83;;;6.87;;
572;SDS011;271;51.114;13.780;2023-08-17T06:04:59;19.30;;;6.80;;
572;SDS011;271;51.114;13.780;2023-08-17T06:07:47;18.40;;;6.50;;
572;SDS011;271;51.114;13.780;2023-08-17T06:10:37;20.93;;;9.00;;
572;SDS011;271;51.114;13.780;2023-08-17T06:13:24;19.90;;;7.90;;
572;SDS011;271;51.114;13.780;2023-08-17T06:16:12;21.73;;;7.77;;
572;SDS011;271;51.114;13.780;2023-08-17T06:19:00;19.40;;;8.10;;
572;SDS011;271;51.114;13.780;2023-08-17T06:21:48;23.13;;;7.83;;
572;SDS011;271;51.114;13.780;2023-08-17T06:24:35;19.67;;;7.30;;
572;SDS011;271;51.114;13.780;2023-08-17T06:27:24;20.77;;;7.37;;
572;SDS011;271;51.114;13.780;2023-08-17T06:30:12;19.60;;;7.40;;
572;SDS011;271;51.114;13.780;2023-08-17T06:33:00;20.57;;;8.50;;
572;SDS011;271;51.114;13.780;2023-08-17T06:35:48;21.00;;;8.40;;
572;SDS011;271;51.114;13.780;2023-08-17T06:38:36;20.50;;;8.60;;
572;SDS011;271;51.114;13.780;2023-08-17T06:41:24;23.13;;;7.23;;
572;SDS011;271;51.114;13.780;2023-08-17T06:44:13;19.97;;;7.33;;
572;SDS011;271;51.114;13.780;2023-08-17T06:47:01;18.97;;;7.13;;
572;SDS011;271;51.114;13.780;2023-08-17T06:49:49;20.70;;;7.50;;
572;SDS011;271;51.114;13.780;2023-08-17T06:52:37;19.43;;;7.10;;
572;SDS011;271;51.114;13.780;2023-08-17T06:55:25;19.40;;;7.57;;
572;SDS011;271;51.114;13.780;2023-08-17T06:58:13;23.53;;;8.40;;
572;SDS011;271;51.114;13.780;2023-08-17T07:01:02;21.27;;;8.20;;
572;SDS011;271;51.114;13.780;2023-08-17T07:03:49;21.33;;;8.00;;
572;SDS011;271;51.114;13.780;2023-08-17T07:06:37;21.87;;;7.70;;
572;SDS011;271;51.114;13.780;2023-08-17T07:09:26;19.17;;;6.60;;
572;SDS011;271;51.114;13.780;2023-08-17T07:12:14;22.00;;;7.53;;
572;SDS011;271;51.114;13.780;2023-08-17T07:15:02;20.30;;;7.10;;
572;SDS011;271;51.114;13.780;2023-08-17T07:17:52;21.10;;;8.50;;
572;SDS011;271;51.114;13.780;2023-08-17T07:20:40;20.23;;;7.93;;
572;SDS011;271;51.114;13.780;2023-08-17T07:23:28;19.93;;;8.27;;
572;SDS011;271;51.114;13.780;2023-08-17T07:26:15;18.30;;;6.70;;
572;SDS011;271;51.114;13.780;2023-08-17T07:29:04;19.63;;;8.47;;
572;SDS011;271;51.114;13.780;2023-08-17T07:31:52;18.37;;;7.80;;
572;SDS011;271;51.114;13.780;2023-08-17T07:34:42;19.87;;;8.37;;
572;SDS011;271;51.114;13.780;2023-08-17T07:37:29;19.03;;;7.80;;
572;SDS011;271;51.114;13.780;2023-08-17T07:40:19;19.67;;;7.80;;
572;SDS011;271;51.114;13.780;2023-08-17T07:43:06;18.33;;;7.40;;
572;SDS011;271;51.114;13.780;2023-08-17T07:45:54;19.67;;;7.63;;
572;SDS011;271;51.114;13.780;2023-08-17T07:48:42;17.50;;;6.87;;
572;SDS011;271;51.114;13.780;2023-08-17T07:51:31;18.40;;;7.10;;
572;SDS011;271;51.114;13.780;2023-08-17T07:54:19;16.40;;;5.87;;
572;SDS011;271;51.114;13.780;2023-08-17T07:57:07;17.70;;;6.80;;
572;SDS011;271;51.114;13.780;2023-08-17T07:59:55;17.10;;;6.40;;
572;SDS011;271;51.114;13.780;2023-08-17T08:02:42;17.20;;;6.40;;
572;SDS011;271;51.114;13.780;2023-08-17T08:05:30;17.83;;;6.70;;
572;SDS011;271;51.114;13.780;2023-08-17T08:08:19;16.83;;;5.37;;
572;SDS011;271;51.114;13.780;2023-08-17T08:11:07;16.90;;;6.30;;
572;SDS011;271;51.114;13.780;2023-08-17T08:13:56;15.77;;;5.33;;
572;SDS011;271;51.114;13.780;2023-08-17T08:16:45;17.13;;;6.40;;
572;SDS011;271;51.114;13.780;2023-08-17T08:19:34;18.30;;;6.93;;
572;SDS011;271;51.114;13.780;2023-08-17T08:22:22;17.40;;;6.80;;
572;SDS011;271;51.114;13.780;2023-08-17T08:25:11;17.87;;;6.70;;
572;SDS011;271;51.114;13.780;2023-08-17T08:27:59;17.27;;;6.33;;
572;SDS011;271;51.114;13.780;2023-08-17T08:30:47;18.67;;;7.80;;
572;SDS011;271;51.114;13.780;2023-08-17T08:33:35;17.70;;;7.00;;
572;SDS011;271;51.114;13.780;2023-08-17T08:36:22;19.93;;;7.23;;
572;SDS011;271;51.114;13.780;2023-08-17T08:39:10;17.93;;;7.03;;
572;SDS011;271;51.114;13.780;2023-08-17T08:42:00;19.30;;;7.60;;
572;SDS011;271;51.114;13.780;2023-08-17T08:44:49;18.57;;;7.87;;
572;SDS011;271;51.114;13.780;2023-08-17T08:47:36;17.83;;;7.60;;
572;SDS011;271;51.114;13.780;2023-08-17T08:50:25;17.37;;;6.37;;
572;SDS011;271;51.114;13.780;2023-08-17T08:53:17;17.70;;;7.00;;
572;SDS011;271;51.114;13.780;2023-08-17T08:56:07;18.57;;;7.10;;
572;SDS011;271;51.114;13.780;2023-08-17T08:59:00;19.00;;;7.20;;
572;SDS011;271;51.114;13.780;2023-08-17T09:01:49;17.70;;;7.00;;
572;SDS011;271;51.114;13.780;2023-08-17T09:04:37;18.00;;;8.20;;
572;SDS011;271;51.114;13.780;2023-08-17T09:07:25;18.27;;;7.10;;
572;SDS011;271;51.114;13.780;2023-08-17T09:10:16;17.97;;;7.20;;
572;SDS011;271;51.114;13.780;2023-08-17T09:13:03;17.67;;;7.00;;
572;SDS011;271;51.114;13.780;2023-08-17T09:15:53;17.67;;;7.23;;
572;SDS011;271;51.114;13.780;2023-08-17T09:18:41;18.07;;;7.13;;
572;SDS011;271;51.114;13.780;2023-08-17T09:21:30;16.77;;;6.60;;
572;SDS011;271;51.114;13.780;2023-08-17T09:24:19;17.53;;;6.77;;
572;SDS011;271;51.114;13.780;2023-08-17T09:27:06;18.80;;;7.13;;
572;SDS011;271;51.114;13.780;2023-08-17T09:30:03;18.23;;;7.07;;
572;SDS011;271;51.114;13.780;2023-08-17T09:32:53;17.17;;;6.60;;
572;SDS011;271;51.114;13.780;2023-08-17T09:35:41;17.30;;;6.73;;
572;SDS011;271;51.114;13.780;2023-08-17T09:38:29;17.47;;;6.53;;
572;SDS011;271;51.114;13.780;2023-08-17T09:41:17;17.50;;;6.40;;
572;SDS011;271;51.114;13.780;2023-08-17T09:44:05;17.40;;;6.90;;
572;SDS011;271;51.114;13.780;2023-08-17T09:46:55;17.70;;;6.80;;
572;SDS011;271;51.114;13.780;2023-08-17T09:49:47;18.87;;;7.90;;
572;SDS011;271;51.114;13.780;2023-08-17T09:52:38;17.43;;;6.90;;
572;SDS011;271;51.114;13.780;2023-08-17T09:55:26;17.33;;;6.60;;
572;SDS011;271;51.114;13.780;2023-08-17T09:58:15;17.83;;;7.43;;
572;SDS011;271;51.114;13.780;2023-08-17T10:01:03;17.87;;;7.20;;
572;SDS011;271;51.114;13.780;2023-08-17T10:03:52;18.77;;;7.73;;
572;SDS011;271;51.114;13.780;2023-08-17T10:06:44;18.20;;;7.63;;
572;SDS011;271;51.114;13.780;2023-08-17T10:09:36;17.40;;;6.57;;
572;SDS011;271;51.114;13.780;2023-08-17T10:12:27;17.83;;;7.67;;
572;SDS011;271;51.114;13.780;2023-08-17T10:15:18;16.90;;;7.37;;
572;SDS011;271;51.114;13.780;2023-08-17T10:18:09;18.03;;;7.30;;
572;SDS011;271;51.114;13.780;2023-08-17T10:21:05;17.27;;;7.20;;
572;SDS011;271;51.114;13.780;2023-08-17T10:23:56;17.23;;;7.33;;
572;SDS011;271;51.114;13.780;2023-08-17T10:26:45;19.40;;;7.87;;
572;SDS011;271;51.114;13.780;2023-08-17T10:29:33;17.77;;;7.00;;
572;SDS011;271;51.114;13.780;2023-08-17T10:32:21;18.30;;;8.20;;
572;SDS011;271;51.114;13.780;2023-08-17T10:35:10;20.80;;;7.87;;
572;SDS011;271;51.114;13.780;2023-08-17T10:37:59;19.60;;;8.00;;
572;SDS011;271;51.114;13.780;2023-08-17T10:41:06;18.10;;;8.40;;
572;SDS011;271;51.114;13.780;2023-08-17T10:43:56;17.70;;;7.70;;
572;SDS011;271;51.114;13.780;2023-08-17T10:46:44;19.10;;;8.33;;
572;SDS011;271;51.114;13.780;2023-08-17T10:49:34;19.13;;;9.00;;
572;SDS011;271;51.114;13.780;2023-08-17T10:52:25;19.50;;;8.87;;
572;SDS011;271;51.114;13.780;2023-08-17T10:55:14;19.73;;;7.77;;
572;SDS011;271;51.114;13.780;2023-08-17T10:58:03;19.97;;;8.23;;
572;SDS011;271;51.114;13.780;2023-08-17T11:00:54;18.90;;;8.77;;
572;SDS011;271;51.114;13.780;2023-08-17T11:03:43;18.37;;;8.47;;
572;SDS011;271;51.114;13.780;2023-08-17T11:07:02;17.73;;;7.57;;
572;SDS011;271;51.114;13.780;2023-08-17T11:09:49;18.03;;;7.93;;
572;SDS011;271;51.114;13.780;2023-08-17T11:12:41;18.77;;;8.90;;
572;SDS011;271;51.114;13.780;2023-08-17T11:15:39;19.10;;;8.23;;
572;SDS011;271;51.114;13.780;2023-08-17T11:18:30;20.87;;;7.93;;
572;SDS011;271;51.114;13.780;2023-08-17T11:21:18;19.57;;;8.90;;
572;SDS011;271;51.114;13.780;2023-08-17T11:24:07;18.10;;;8.60;;
572;SDS011;271;51.114;13.780;2023-08-17T11:26:57;19.57;;;8.63;;
572;SDS011;271;51.114;13.780;2023-08-17T11:29:45;18.67;;;8.57;;
572;SDS011;271;51.114;13.780;2023-08-17T11:32:34;19.67;;;9.57;;
572;SDS011;271;51.114;13.780;2023-08-17T11:35:22;18.70;;;8.67;;
572;SDS011;271;51.114;13.780;2023-08-17T11:38:09;18.83;;;8.80;;
572;SDS011;271;51.114;13.780;2023-08-17T11:40:57;18.53;;;8.97;;
572;SDS011;271;51.114;13.780;2023-08-17T11:43:45;19.70;;;9.10;;
572;SDS011;271;51.114;13.780;2023-08-17T11:46:33;19.60;;;8.70;;
572;SDS011;271;51.114;13.780;2023-08-17T11:49:22;19.60;;;8.70;;
572;SDS011;271;51.114;13.780;2023-08-17T11:52:10;18.47;;;8.73;;
572;SDS011;271;51.114;13.780;2023-08-17T11:54:58;19.23;;;8.40;;
572;SDS011;271;51.114;13.780;2023-08-17T11:57:46;19.40;;;8.80;;
572;SDS011;271;51.114;13.780;2023-08-17T12:00:36;20.10;;;10.03;;
572;SDS011;271;51.114;13.780;2023-08-17T12:03:33;19.80;;;8.70;;
572;SDS011;271;51.114;13.780;2023-08-17T12:06:22;19.03;;;9.13;;
572;SDS011;271;51.114;13.780;2023-08-17T12:09:11;18.77;;;8.20;;
572;SDS011;271;51.114;13.780;2023-08-17T12:11:59;19.20;;;9.20;;
572;SDS011;271;51.114;13.780;2023-08-17T12:14:48;19.00;;;9.33;;
572;SDS011;271;51.114;13.780;2023-08-17T12:17:36;19.20;;;8.57;;
572;SDS011;271;51.114;13.780;2023-08-17T12:20:32;20.10;;;8.70;;
572;SDS011;271;51.114;13.780;2023-08-17T12:23:22;19.30;;;9.10;;
572;SDS011;271;51.114;13.780;2023-08-17T12:26:10;18.50;;;8.63;;
572;SDS011;271;51.114;13.780;2023-08-17T12:29:05;19.50;;;8.27;;
572;SDS011;271;51.114;13.780;2023-08-17T12:31:54;21.23;;;9.10;;
572;SDS011;271;51.114;13.780;2023-08-17T12:34:44;20.50;;;8.83;;
572;SDS011;271;51.114;13.780;2023-08-17T12:37:32;18.60;;;9.20;;
572;SDS011;271;51.114;13.780;2023-08-17T12:40:22;18.27;;;8.67;;
572;SDS011;271;51.114;13.780;2023-08-17T12:43:10;19.97;;;9.47;;
572;SDS011;271;51.114;13.780;2023-08-17T12:45:57;18.97;;;9.17;;
572;SDS011;271;51.114;13.780;2023-08-17T12:48:45;19.90;;;8.57;;
572;SDS011;271;51.114;13.780;2023-08-17T12:51:33;19.87;;;9.23;;
572;SDS011;271;51.114;13.780;2023-08-17T12:54:21;18.07;;;8.20;;
572;SDS011;271;51.114;13.780;2023-08-17T12:57:10;18.30;;;7.80;;
572;SDS011;271;51.114;13.780;2023-08-17T12:59:58;18.50;;;8.60;;
572;SDS011;271;51.114;13.780;2023-08-17T13:02:46;17.63;;;7.30;;
572;SDS011;271;51.114;13.780;2023-08-17T13:05:37;18.57;;;8.47;;
572;SDS011;271;51.114;13.780;2023-08-17T13:08:26;18.20;;;8.10;;
572;SDS011;271;51.114;13.780;2023-08-17T13:11:16;21.17;;;7.90;;
572;SDS011;271;51.114;13.780;2023-08-17T13:14:05;18.03;;;8.57;;
572;SDS011;271;51.114;13.780;2023-08-17T13:16:53;18.37;;;8.13;;
572;SDS011;271;51.114;13.780;2023-08-17T13:19:41;21.30;;;7.83;;
572;SDS011;271;51.114;13.780;2023-08-17T13:22:30;18.30;;;8.30;;
572;SDS011;271;51.114;13.780;2023-08-17T13:25:18;17.97;;;7.40;;
572;SDS011;271;51.114;13.780;2023-08-17T13:28:08;18.73;;;7.80;;
572;SDS011;271;51.114;13.780;2023-08-17T13:30:57;21.77;;;8.00;;
572;SDS011;271;51.114;13.780;2023-08-17T13:33:45;20.73;;;8.10;;
572;SDS011;271;51.114;13.780;2023-08-17T13:36:32;18.40;;;7.73;;
572;SDS011;271;51.114;13.780;2023-08-17T13:39:21;19.33;;;8.70;;
572;SDS011;271;51.114;13.780;2023-08-17T13:42:09;18.30;;;7.83;;
572;SDS011;271;51.114;13.780;2023-08-17T13:44:57;18.17;;;8.40;;
572;SDS011;271;51.114;13.780;2023-08-17T13:47:46;19.07;;;7.97;;
572;SDS011;271;51.114;13.780;2023-08-17T13:50:34;18.37;;;8.00;;
572;SDS011;271;51.114;13.780;2023-08-17T13:53:24;18.70;;;8.40;;
572;SDS011;271;51.114;13.780;2023-08-17T13:56:12;18.77;;;8.80;;
572;SDS011;271;51.114;13.780;2023-08-17T13:59:00;18.73;;;7.60;;
572;SDS011;271;51.114;13.780;2023-08-17T14:01:48;18.90;;;8.53;;
572;SDS011;271;51.114;13.780;2023-08-17T14:04:37;19.10;;;7.70;;
572;SDS011;271;51.114;13.780;2023-08-17T14:07:25;18.20;;;8.40;;
572;SDS011;271;51.114;13.780;2023-08-17T14:10:13;17.60;;;7.57;;
572;SDS011;271;51.114;13.780;2023-08-17T14:13:00;17.70;;;7.83;;
572;SDS011;271;51.114;13.780;2023-08-17T14:15:48;18.07;;;8.50;;
572;SDS011;271;51.114;13.780;2023-08-17T14:18:36;19.63;;;9.50;;
572;SDS011;271;51.114;13.780;2023-08-17T14:21:25;18.90;;;9.10;;
572;SDS011;271;51.114;13.780;2023-08-17T14:24:12;19.30;;;8.80;;
572;SDS011;271;51.114;13.780;2023-08-17T14:27:00;18.17;;;8.20;;
572;SDS011;271;51.114;13.780;2023-08-17T14:29:48;19.90;;;9.23;;
572;SDS011;271;51.114;13.780;2023-08-17T14:32:36;20.40;;;9.10;;
572;SDS011;271;51.114;13.780;2023-08-17T14:35:23;18.20;;;8.90;;
572;SDS011;271;51.114;13.780;2023-08-17T14:38:12;19.07;;;8.67;;
572;SDS011;271;51.114;13.780;2023-08-17T14:41:00;20.40;;;9.67;;
572;SDS011;271;51.114;13.780;2023-08-17T14:43:50;19.90;;;8.77;;
572;SDS011;271;51.114;13.780;2023-08-17T14:46:37;18.70;;;8.30;;
572;SDS011;271;51.114;13.780;2023-08-17T14:49:28;17.87;;;8.10;;
572;SDS011;271;51.114;13.780;2023-08-17T14:52:16;18.60;;;8.40;;
572;SDS011;271;51.114;13.780;2023-08-17T14:55:06;19.70;;;8.90;;
572;SDS011;271;51.114;13.780;2023-08-17T14:57:54;19.37;;;9.07;;
572;SDS011;271;51.114;13.780;2023-08-17T15:00:42;19.63;;;9.20;;
572;SDS011;271;51.114;13.780;2023-08-17T15:03:30;21.47;;;8.90;;
572;SDS011;271;51.114;13.780;2023-08-17T15:06:18;18.83;;;8.87;;
572;SDS011;271;51.114;13.780;2023-08-17T15:09:09;19.07;;;8.57;;
572;SDS011;271;51.114;13.780;2023-08-17T15:11:58;19.37;;;8.70;;
572;SDS011;271;51.114;13.780;2023-08-17T15:14:46;20.53;;;9.20;;
572;SDS011;271;51.114;13.780;2023-08-17T15:17:34;19.70;;;9.77;;
572;SDS011;271;51.114;13.780;2023-08-17T15:20:21;18.83;;;7.93;;
572;SDS011;271;51.114;13.780;2023-08-17T15:23:09;18.40;;;8.60;;
572;SDS011;271;51.114;13.780;2023-08-17T15:25:57;19.67;;;9.23;;
572;SDS011;271;51.114;13.780;2023-08-17T15:28:46;20.17;;;8.80;;
572;SDS011;271;51.114;13.780;2023-08-17T15:31:34;18.13;;;8.50;;
572;SDS011;271;51.114;13.780;2023-08-17T15:34:22;18.50;;;8.17;;
572;SDS011;271;51.114;13.780;2023-08-17T15:37:09;20.13;;;9.20;;
572;SDS011;271;51.114;13.780;2023-08-17T15:39:57;20.97;;;9.53;;
572;SDS011;271;51.114;13.780;2023-08-17T15:42:45;19.23;;;8.70;;
572;SDS011;271;51.114;13.780;2023-08-17T15:45:34;21.47;;;9.20;;
572;SDS011;271;51.114;13.780;2023-08-17T15:48:22;20.03;;;9.63;;
572;SDS011;271;51.114;13.780;2023-08-17T15:51:10;18.90;;;9.10;;
572;SDS011;271;51.114;13.780;2023-08-17T15:53:57;19.30;;;8.60;;
572;SDS011;271;51.114;13.780;2023-08-17T15:56:45;18.67;;;9.03;;
572;SDS011;271;51.114;13.780;2023-08-17T15:59:33;18.80;;;8.90;;
572;SDS011;271;51.114;13.780;2023-08-17T16:02:23;18.77;;;8.50;;
572;SDS011;271;51.114;13.780;2023-08-17T16:05:11;21.07;;;10.33;;
572;SDS011;271;51.114;13.780;2023-08-17T16:07:58;20.23;;;9.03;;
572;SDS011;271;51.114;13.780;2023-08-17T16:10:46;20.77;;;9.67;;
572;SDS011;271;51.114;13.780;2023-08-17T16:13:34;19.63;;;9.23;;
572;SDS011;271;51.114;13.780;2023-08-17T16:16:21;18.60;;;8.73;;
572;SDS011;271;51.114;13.780;2023-08-17T16:19:10;20.13;;;9.17;;
572;SDS011;271;51.114;13.780;2023-08-17T16:21:58;18.87;;;9.27;;
572;SDS011;271;51.114;13.780;2023-08-17T16:24:46;18.80;;;8.43;;
572;SDS011;271;51.114;13.780;2023-08-17T16:27:34;19.10;;;9.47;;
572;SDS011;271;51.114;13.780;2023-08-17T16:30:21;20.00;;;10.13;;
572;SDS011;271;51.114;13.780;2023-08-17T16:33:09;20.37;;;9.63;;
572;SDS011;271;51.114;13.780;2023-08-17T16:35:58;20.97;;;9.70;;
572;SDS011;271;51.114;13.780;2023-08-17T16:38:46;22.60;;;10.00;;
572;SDS011;271;51.114;13.780;2023-08-17T16:41:34;21.17;;;9.57;;
572;SDS011;271;51.114;13.780;2023-08-17T16:44:21;19.77;;;9.00;;
572;SDS011;271;51.114;13.780;2023-08-17T16:47:10;19.23;;;9.70;;
572;SDS011;271;51.114;13.780;2023-08-17T16:49:57;19.97;;;9.10;;
572;SDS011;271;51.114;13.780;2023-08-17T16:52:48;20.87;;;9.47;;
572;SDS011;271;51.114;13.780;2023-08-17T16:55:36;20.23;;;10.23;;
572;SDS011;271;51.114;13.780;2023-08-17T16:58:24;19.37;;;9.50;;
572;SDS011;271;51.114;13.780;2023-08-17T17:01:12;20.60;;;10.20;;
572;SDS011;271;51.114;13.780;2023-08-17T17:03:59;19.50;;;9.60;;
572;SDS011;271;51.114;13.780;2023-08-17T17:06:47;22.23;;;9.67;;
572;SDS011;271;51.114;13.780;2023-08-17T17:09:37;20.77;;;9.40;;
572;SDS011;271;51.114;13.780;2023-08-17T17:12:25;20.07;;;9.70;;
572;SDS011;271;51.114;13.780;2023-08-17T17:15:13;20.13;;;10.07;;
572;SDS011;271;51.114;13.780;2023-08-17T17:18:01;19.97;;;8.53;;
572;SDS011;271;51.114;13.780;2023-08-17T17:20:49;19.10;;;9.20;;
572;SDS011;271;51.114;13.780;2023-08-17T17:23:37;19.87;;;9.40;;
572;SDS011;271;51.114;13.780;2023-08-17T17:26:26;18.50;;;8.53;;
572;SDS011;271;51.114;13.780;2023-08-17T17:29:14;21.30;;;8.93;;